sensor_id;sensor_type;location;lat;lon;timestamp;P1;durP1;ratioP1;P2;durP2;ratioP2
10461;SDS011;5278;42.656;23.374;2023-12-04T00:00:29;7.47;;;5.17;;
10461;SDS011;5278;42.656;23.374;2023-12-04T00:02:56;7.53;;;5.37;;
10461;SDS011;5278;42.656;23.374;2023-12-04T00:05:23;7.03;;;5.20;;
10461;SDS011;5278;42.656;23.374;2023-12-04T00:07:50;6.47;;;4.63;;
10461;SDS011;5278;42.656;23.374;2023-12-04T00:10:16;7.40;;;4.90;;
10461;SDS011;5278;42.656;23.374;2023-12-04T00:12:43;6.33;;;4.70;;
10461;SDS011;5278;42.656;23.374;2023-12-04T00:15:10;9.07;;;5.43;;
10461;SDS011;5278;42.656;23.374;2023-12-04T00:17:38;8.40;;;5.83;;
10461;SDS011;5278;42.656;23.374;2023-12-04T00:20:05;7.93;;;5.47;;
10461;SDS011;5278;42.656;23.374;2023-12-04T00:22:33;9.43;;;5.67;;
10461;SDS011;5278;42.656;23.374;2023-12-04T00:25:01;7.83;;;5.43;;
10461;SDS011;5278;42.656;23.374;2023-12-04T00:27:28;6.67;;;4.57;;
10461;SDS011;5278;42.656;23.374;2023-12-04T00:29:55;7.77;;;4.87;;
10461;SDS011;5278;42.656;23.374;2023-12-04T00:32:21;7.13;;;5.60;;
10461;SDS011;5278;42.656;23.374;2023-12-04T00:34:50;7.77;;;5.17;;
10461;SDS011;5278;42.656;23.374;2023-12-04T00:37:17;7.90;;;5.30;;
10461;SDS011;5278;42.656;23.374;2023-12-04T00:39:43;6.20;;;4.83;;
10461;SDS011;5278;42.656;23.374;2023-12-04T00:42:10;6.20;;;4.63;;
10461;SDS011;5278;42.656;23.374;2023-12-04T00:44:37;9.97;;;5.57;;
10461;SDS011;5278;42.656;23.374;2023-12-04T00:47:04;8.17;;;5.63;;
10461;SDS011;5278;42.656;23.374;2023-12-04T00:49:30;8.17;;;5.37;;
10461;SDS011;5278;42.656;23.374;2023-12-04T00:51:59;6.87;;;5.03;;
10461;SDS011;5278;42.656;23.374;2023-12-04T00:54:25;6.83;;;4.90;;
10461;SDS011;5278;42.656;23.374;2023-12-04T00:56:52;7.30;;;5.77;;
10461;SDS011;5278;42.656;23.374;2023-12-04T00:59:19;7.87;;;5.37;;
10461;SDS011;5278;42.656;23.374;2023-12-04T01:01:46;8.07;;;6.10;;
10461;SDS011;5278;42.656;23.374;2023-12-04T01:04:12;6.30;;;5.07;;
10461;SDS011;5278;42.656;23.374;2023-12-04T01:06:39;5.80;;;4.53;;
10461;SDS011;5278;42.656;23.374;2023-12-04T01:09:07;7.47;;;5.37;;
10461;SDS011;5278;42.656;23.374;2023-12-04T01:11:34;6.63;;;5.67;;
10461;SDS011;5278;42.656;23.374;2023-12-04T01:14:02;5.90;;;4.70;;
10461;SDS011;5278;42.656;23.374;2023-12-04T01:16:28;7.60;;;5.17;;
10461;SDS011;5278;42.656;23.374;2023-12-04T01:18:56;7.33;;;5.87;;
10461;SDS011;5278;42.656;23.374;2023-12-04T01:21:22;5.17;;;4.20;;
10461;SDS011;5278;42.656;23.374;2023-12-04T01:23:49;4.83;;;3.97;;
10461;SDS011;5278;42.656;23.374;2023-12-04T01:26:17;7.17;;;4.87;;
10461;SDS011;5278;42.656;23.374;2023-12-04T01:28:44;6.23;;;4.90;;
10461;SDS011;5278;42.656;23.374;2023-12-04T01:31:11;5.90;;;4.60;;
10461;SDS011;5278;42.656;23.374;2023-12-04T01:33:38;8.07;;;5.77;;
10461;SDS011;5278;42.656;23.374;2023-12-04T01:36:05;6.23;;;5.20;;
10461;SDS011;5278;42.656;23.374;2023-12-04T01:38:32;6.90;;;5.13;;
10461;SDS011;5278;42.656;23.374;2023-12-04T01:40:59;5.97;;;4.67;;
10461;SDS011;5278;42.656;23.374;2023-12-04T01:43:27;5.93;;;4.83;;
10461;SDS011;5278;42.656;23.374;2023-12-04T01:45:54;6.37;;;5.10;;
10461;SDS011;5278;42.656;23.374;2023-12-04T01:48:21;6.87;;;5.30;;
10461;SDS011;5278;42.656;23.374;2023-12-04T01:50:49;7.63;;;5.30;;
10461;SDS011;5278;42.656;23.374;2023-12-04T01:53:16;8.67;;;5.43;;
10461;SDS011;5278;42.656;23.374;2023-12-04T01:55:43;8.63;;;5.50;;
10461;SDS011;5278;42.656;23.374;2023-12-04T01:58:09;8.53;;;5.63;;
10461;SDS011;5278;42.656;23.374;2023-12-04T02:00:38;9.80;;;5.53;;
10461;SDS011;5278;42.656;23.374;2023-12-04T02:03:05;7.70;;;5.63;;
10461;SDS011;5278;42.656;23.374;2023-12-04T02:05:34;7.63;;;5.30;;
10461;SDS011;5278;42.656;23.374;2023-12-04T02:08:01;7.17;;;5.63;;
10461;SDS011;5278;42.656;23.374;2023-12-04T02:10:30;8.37;;;5.77;;
10461;SDS011;5278;42.656;23.374;2023-12-04T02:12:56;8.47;;;5.87;;
10461;SDS011;5278;42.656;23.374;2023-12-04T02:15:23;5.63;;;4.80;;
10461;SDS011;5278;42.656;23.374;2023-12-04T02:17:51;9.57;;;5.80;;
10461;SDS011;5278;42.656;23.374;2023-12-04T02:20:19;6.77;;;5.13;;
10461;SDS011;5278;42.656;23.374;2023-12-04T02:22:46;7.50;;;5.13;;
10461;SDS011;5278;42.656;23.374;2023-12-04T02:25:14;10.43;;;5.43;;
10461;SDS011;5278;42.656;23.374;2023-12-04T02:27:43;8.43;;;5.53;;
10461;SDS011;5278;42.656;23.374;2023-12-04T02:30:13;7.03;;;5.60;;
10461;SDS011;5278;42.656;23.374;2023-12-04T02:32:44;7.20;;;4.97;;
10461;SDS011;5278;42.656;23.374;2023-12-04T02:35:12;7.93;;;5.13;;
10461;SDS011;5278;42.656;23.374;2023-12-04T02:37:42;6.43;;;4.77;;
10461;SDS011;5278;42.656;23.374;2023-12-04T02:40:10;8.23;;;5.40;;
10461;SDS011;5278;42.656;23.374;2023-12-04T02:42:40;7.83;;;5.23;;
10461;SDS011;5278;42.656;23.374;2023-12-04T02:45:07;7.07;;;5.23;;
10461;SDS011;5278;42.656;23.374;2023-12-04T02:47:34;7.83;;;5.40;;
10461;SDS011;5278;42.656;23.374;2023-12-04T02:50:01;7.90;;;5.60;;
10461;SDS011;5278;42.656;23.374;2023-12-04T02:52:28;7.50;;;5.47;;
10461;SDS011;5278;42.656;23.374;2023-12-04T02:54:54;7.40;;;5.17;;
10461;SDS011;5278;42.656;23.374;2023-12-04T02:57:21;6.60;;;4.80;;
10461;SDS011;5278;42.656;23.374;2023-12-04T02:59:49;8.20;;;5.47;;
10461;SDS011;5278;42.656;23.374;2023-12-04T03:02:16;7.57;;;5.20;;
10461;SDS011;5278;42.656;23.374;2023-12-04T03:04:43;7.37;;;5.50;;
10461;SDS011;5278;42.656;23.374;2023-12-04T03:07:10;8.13;;;5.90;;
10461;SDS011;5278;42.656;23.374;2023-12-04T03:09:36;7.63;;;4.97;;
10461;SDS011;5278;42.656;23.374;2023-12-04T03:12:03;7.13;;;5.57;;
10461;SDS011;5278;42.656;23.374;2023-12-04T03:14:31;7.43;;;4.77;;
10461;SDS011;5278;42.656;23.374;2023-12-04T03:16:59;7.43;;;5.83;;
10461;SDS011;5278;42.656;23.374;2023-12-04T03:19:26;6.73;;;5.73;;
10461;SDS011;5278;42.656;23.374;2023-12-04T03:21:52;7.97;;;5.20;;
10461;SDS011;5278;42.656;23.374;2023-12-04T03:24:19;6.70;;;5.03;;
10461;SDS011;5278;42.656;23.374;2023-12-04T03:26:46;7.83;;;5.80;;
10461;SDS011;5278;42.656;23.374;2023-12-04T03:29:13;8.87;;;5.63;;
10461;SDS011;5278;42.656;23.374;2023-12-04T03:31:39;8.57;;;5.70;;
10461;SDS011;5278;42.656;23.374;2023-12-04T03:34:08;7.73;;;5.00;;
10461;SDS011;5278;42.656;23.374;2023-12-04T03:36:34;6.90;;;5.03;;
10461;SDS011;5278;42.656;23.374;2023-12-04T03:39:01;9.23;;;6.30;;
10461;SDS011;5278;42.656;23.374;2023-12-04T03:41:28;7.57;;;5.20;;
10461;SDS011;5278;42.656;23.374;2023-12-04T03:43:55;9.50;;;5.73;;
10461;SDS011;5278;42.656;23.374;2023-12-04T03:46:22;9.67;;;5.10;;
10461;SDS011;5278;42.656;23.374;2023-12-04T03:48:48;8.53;;;5.30;;
10461;SDS011;5278;42.656;23.374;2023-12-04T03:51:16;6.47;;;5.40;;
10461;SDS011;5278;42.656;23.374;2023-12-04T03:53:43;6.17;;;4.90;;
10461;SDS011;5278;42.656;23.374;2023-12-04T03:56:10;9.43;;;5.57;;
10461;SDS011;5278;42.656;23.374;2023-12-04T03:58:37;7.40;;;4.77;;
10461;SDS011;5278;42.656;23.374;2023-12-04T04:01:04;6.00;;;4.80;;
10461;SDS011;5278;42.656;23.374;2023-12-04T04:03:31;6.10;;;5.20;;
10461;SDS011;5278;42.656;23.374;2023-12-04T04:05:58;7.77;;;5.43;;
10461;SDS011;5278;42.656;23.374;2023-12-04T04:08:26;7.37;;;5.20;;
10461;SDS011;5278;42.656;23.374;2023-12-04T04:10:53;8.00;;;5.30;;
10461;SDS011;5278;42.656;23.374;2023-12-04T04:13:20;6.50;;;4.90;;
10461;SDS011;5278;42.656;23.374;2023-12-04T04:15:47;7.07;;;5.10;;
10461;SDS011;5278;42.656;23.374;2023-12-04T04:18:13;9.20;;;5.20;;
10461;SDS011;5278;42.656;23.374;2023-12-04T04:20:40;6.87;;;4.83;;
10461;SDS011;5278;42.656;23.374;2023-12-04T04:23:07;10.17;;;5.00;;
10461;SDS011;5278;42.656;23.374;2023-12-04T04:25:35;7.63;;;5.47;;
10461;SDS011;5278;42.656;23.374;2023-12-04T04:28:02;6.40;;;4.80;;
10461;SDS011;5278;42.656;23.374;2023-12-04T04:30:29;7.67;;;4.60;;
10461;SDS011;5278;42.656;23.374;2023-12-04T04:32:55;7.33;;;5.00;;
10461;SDS011;5278;42.656;23.374;2023-12-04T04:35:22;8.20;;;6.03;;
10461;SDS011;5278;42.656;23.374;2023-12-04T04:37:49;7.37;;;5.20;;
10461;SDS011;5278;42.656;23.374;2023-12-04T04:40:17;8.47;;;5.20;;
10461;SDS011;5278;42.656;23.374;2023-12-04T04:42:45;6.17;;;5.07;;
10461;SDS011;5278;42.656;23.374;2023-12-04T04:45:13;6.00;;;4.80;;
10461;SDS011;5278;42.656;23.374;2023-12-04T04:47:40;8.50;;;4.67;;
10461;SDS011;5278;42.656;23.374;2023-12-04T04:50:07;6.93;;;5.33;;
10461;SDS011;5278;42.656;23.374;2023-12-04T04:52:34;8.93;;;5.90;;
10461;SDS011;5278;42.656;23.374;2023-12-04T04:55:01;5.93;;;4.60;;
10461;SDS011;5278;42.656;23.374;2023-12-04T04:57:28;7.60;;;4.80;;
10461;SDS011;5278;42.656;23.374;2023-12-04T04:59:56;6.20;;;4.80;;
10461;SDS011;5278;42.656;23.374;2023-12-04T05:02:24;6.90;;;4.63;;
10461;SDS011;5278;42.656;23.374;2023-12-04T05:04:50;6.47;;;3.77;;
10461;SDS011;5278;42.656;23.374;2023-12-04T05:07:17;6.30;;;5.13;;
10461;SDS011;5278;42.656;23.374;2023-12-04T05:09:44;5.10;;;4.20;;
10461;SDS011;5278;42.656;23.374;2023-12-04T05:12:11;6.87;;;5.20;;
10461;SDS011;5278;42.656;23.374;2023-12-04T05:14:37;8.07;;;4.67;;
10461;SDS011;5278;42.656;23.374;2023-12-04T05:17:06;6.10;;;4.83;;
10461;SDS011;5278;42.656;23.374;2023-12-04T05:19:32;6.33;;;4.97;;
10461;SDS011;5278;42.656;23.374;2023-12-04T05:21:59;7.23;;;4.83;;
10461;SDS011;5278;42.656;23.374;2023-12-04T05:24:26;8.07;;;4.80;;
10461;SDS011;5278;42.656;23.374;2023-12-04T05:26:53;6.73;;;4.80;;
10461;SDS011;5278;42.656;23.374;2023-12-04T05:29:19;8.60;;;4.97;;
10461;SDS011;5278;42.656;23.374;2023-12-04T05:31:46;6.97;;;5.30;;
10461;SDS011;5278;42.656;23.374;2023-12-04T05:34:14;7.27;;;5.20;;
10461;SDS011;5278;42.656;23.374;2023-12-04T05:36:41;7.10;;;5.53;;
10461;SDS011;5278;42.656;23.374;2023-12-04T05:39:08;6.10;;;4.47;;
10461;SDS011;5278;42.656;23.374;2023-12-04T05:41:35;6.80;;;5.10;;
10461;SDS011;5278;42.656;23.374;2023-12-04T05:44:01;6.37;;;4.77;;
10461;SDS011;5278;42.656;23.374;2023-12-04T05:46:27;7.90;;;5.10;;
10461;SDS011;5278;42.656;23.374;2023-12-04T05:48:54;7.57;;;5.30;;
10461;SDS011;5278;42.656;23.374;2023-12-04T05:51:22;6.23;;;5.33;;
10461;SDS011;5278;42.656;23.374;2023-12-04T05:53:49;6.90;;;5.20;;
10461;SDS011;5278;42.656;23.374;2023-12-04T05:56:16;7.77;;;6.20;;
10461;SDS011;5278;42.656;23.374;2023-12-04T05:58:43;7.73;;;5.60;;
10461;SDS011;5278;42.656;23.374;2023-12-04T06:01:09;10.10;;;6.03;;
10461;SDS011;5278;42.656;23.374;2023-12-04T06:03:36;7.40;;;5.30;;
10461;SDS011;5278;42.656;23.374;2023-12-04T06:06:03;7.00;;;5.87;;
10461;SDS011;5278;42.656;23.374;2023-12-04T06:08:31;8.63;;;5.90;;
10461;SDS011;5278;42.656;23.374;2023-12-04T06:10:58;6.93;;;5.10;;
10461;SDS011;5278;42.656;23.374;2023-12-04T06:13:25;7.50;;;5.63;;
10461;SDS011;5278;42.656;23.374;2023-12-04T06:15:52;7.90;;;5.37;;
10461;SDS011;5278;42.656;23.374;2023-12-04T06:18:19;8.57;;;5.90;;
10461;SDS011;5278;42.656;23.374;2023-12-04T06:20:46;9.30;;;5.03;;
10461;SDS011;5278;42.656;23.374;2023-12-04T06:23:14;6.60;;;5.00;;
10461;SDS011;5278;42.656;23.374;2023-12-04T06:25:42;7.40;;;5.43;;
10461;SDS011;5278;42.656;23.374;2023-12-04T06:28:10;7.37;;;5.73;;
10461;SDS011;5278;42.656;23.374;2023-12-04T06:30:38;9.40;;;6.10;;
10461;SDS011;5278;42.656;23.374;2023-12-04T06:33:05;6.77;;;5.43;;
10461;SDS011;5278;42.656;23.374;2023-12-04T06:35:33;7.87;;;5.80;;
10461;SDS011;5278;42.656;23.374;2023-12-04T06:38:01;8.73;;;5.60;;
10461;SDS011;5278;42.656;23.374;2023-12-04T06:40:32;7.70;;;5.60;;
10461;SDS011;5278;42.656;23.374;2023-12-04T06:43:01;6.73;;;5.00;;
10461;SDS011;5278;42.656;23.374;2023-12-04T06:45:28;9.00;;;6.03;;
10461;SDS011;5278;42.656;23.374;2023-12-04T06:47:57;9.77;;;6.70;;
10461;SDS011;5278;42.656;23.374;2023-12-04T06:50:25;8.47;;;6.17;;
10461;SDS011;5278;42.656;23.374;2023-12-04T06:52:52;8.07;;;5.87;;
10461;SDS011;5278;42.656;23.374;2023-12-04T06:55:19;11.23;;;6.83;;
10461;SDS011;5278;42.656;23.374;2023-12-04T06:57:45;10.73;;;6.23;;
10461;SDS011;5278;42.656;23.374;2023-12-04T07:00:14;7.90;;;6.00;;
10461;SDS011;5278;42.656;23.374;2023-12-04T07:02:41;10.03;;;6.70;;
10461;SDS011;5278;42.656;23.374;2023-12-04T07:05:08;7.53;;;5.00;;
10461;SDS011;5278;42.656;23.374;2023-12-04T07:07:35;8.13;;;5.87;;
10461;SDS011;5278;42.656;23.374;2023-12-04T07:10:02;8.70;;;6.30;;
10461;SDS011;5278;42.656;23.374;2023-12-04T07:12:29;8.27;;;5.97;;
10461;SDS011;5278;42.656;23.374;2023-12-04T07:14:56;8.73;;;6.13;;
10461;SDS011;5278;42.656;23.374;2023-12-04T07:17:24;7.50;;;5.50;;
10461;SDS011;5278;42.656;23.374;2023-12-04T07:19:51;9.33;;;6.10;;
10461;SDS011;5278;42.656;23.374;2023-12-04T07:22:18;8.43;;;6.60;;
10461;SDS011;5278;42.656;23.374;2023-12-04T07:24:44;7.73;;;5.90;;
10461;SDS011;5278;42.656;23.374;2023-12-04T07:27:11;8.50;;;6.33;;
10461;SDS011;5278;42.656;23.374;2023-12-04T07:29:38;12.40;;;7.13;;
10461;SDS011;5278;42.656;23.374;2023-12-04T07:32:05;9.00;;;6.17;;
10461;SDS011;5278;42.656;23.374;2023-12-04T07:34:34;8.03;;;5.23;;
10461;SDS011;5278;42.656;23.374;2023-12-04T07:37:02;8.93;;;5.23;;
10461;SDS011;5278;42.656;23.374;2023-12-04T07:39:28;8.07;;;5.67;;
10461;SDS011;5278;42.656;23.374;2023-12-04T07:41:55;7.13;;;5.60;;
10461;SDS011;5278;42.656;23.374;2023-12-04T07:44:22;7.83;;;5.73;;
10461;SDS011;5278;42.656;23.374;2023-12-04T07:46:49;10.00;;;6.57;;
10461;SDS011;5278;42.656;23.374;2023-12-04T07:49:16;7.53;;;5.50;;
10461;SDS011;5278;42.656;23.374;2023-12-04T07:51:44;9.93;;;6.60;;
10461;SDS011;5278;42.656;23.374;2023-12-04T07:54:10;10.13;;;6.70;;
10461;SDS011;5278;42.656;23.374;2023-12-04T07:56:37;7.47;;;4.53;;
10461;SDS011;5278;42.656;23.374;2023-12-04T07:59:04;9.83;;;6.10;;
10461;SDS011;5278;42.656;23.374;2023-12-04T08:01:31;9.20;;;6.77;;
10461;SDS011;5278;42.656;23.374;2023-12-04T08:03:57;9.13;;;6.73;;
10461;SDS011;5278;42.656;23.374;2023-12-04T08:06:24;8.57;;;6.10;;
10461;SDS011;5278;42.656;23.374;2023-12-04T08:08:52;8.27;;;5.97;;
10461;SDS011;5278;42.656;23.374;2023-12-04T08:11:19;6.67;;;4.67;;
10461;SDS011;5278;42.656;23.374;2023-12-04T08:13:46;6.10;;;4.77;;
10461;SDS011;5278;42.656;23.374;2023-12-04T08:16:13;6.33;;;4.67;;
10461;SDS011;5278;42.656;23.374;2023-12-04T08:18:41;6.47;;;4.23;;
10461;SDS011;5278;42.656;23.374;2023-12-04T08:21:08;8.30;;;5.43;;
10461;SDS011;5278;42.656;23.374;2023-12-04T08:23:35;6.80;;;5.10;;
10461;SDS011;5278;42.656;23.374;2023-12-04T08:26:03;7.63;;;4.93;;
10461;SDS011;5278;42.656;23.374;2023-12-04T08:28:30;5.97;;;5.03;;
10461;SDS011;5278;42.656;23.374;2023-12-04T08:30:57;7.67;;;5.63;;
10461;SDS011;5278;42.656;23.374;2023-12-04T08:33:24;6.17;;;4.53;;
10461;SDS011;5278;42.656;23.374;2023-12-04T08:35:51;5.43;;;4.37;;
10461;SDS011;5278;42.656;23.374;2023-12-04T08:38:17;6.80;;;4.70;;
10461;SDS011;5278;42.656;23.374;2023-12-04T08:40:44;5.23;;;4.73;;
10461;SDS011;5278;42.656;23.374;2023-12-04T08:43:12;5.63;;;4.30;;
10461;SDS011;5278;42.656;23.374;2023-12-04T08:45:39;5.13;;;4.37;;
10461;SDS011;5278;42.656;23.374;2023-12-04T08:48:06;6.33;;;4.00;;
10461;SDS011;5278;42.656;23.374;2023-12-04T08:50:32;6.27;;;4.87;;
10461;SDS011;5278;42.656;23.374;2023-12-04T08:53:00;7.10;;;5.00;;
10461;SDS011;5278;42.656;23.374;2023-12-04T08:55:27;7.37;;;5.07;;
10461;SDS011;5278;42.656;23.374;2023-12-04T08:57:54;6.87;;;4.43;;
10461;SDS011;5278;42.656;23.374;2023-12-04T09:00:22;14.07;;;4.63;;
10461;SDS011;5278;42.656;23.374;2023-12-04T09:02:49;18.03;;;8.93;;
10461;SDS011;5278;42.656;23.374;2023-12-04T09:05:16;43.50;;;13.83;;
10461;SDS011;5278;42.656;23.374;2023-12-04T09:07:43;22.10;;;8.37;;
10461;SDS011;5278;42.656;23.374;2023-12-04T09:10:09;4.40;;;4.00;;
10461;SDS011;5278;42.656;23.374;2023-12-04T09:12:36;6.73;;;4.40;;
10461;SDS011;5278;42.656;23.374;2023-12-04T09:15:03;4.93;;;4.43;;
10461;SDS011;5278;42.656;23.374;2023-12-04T09:17:32;8.70;;;4.17;;
10461;SDS011;5278;42.656;23.374;2023-12-04T09:19:59;5.23;;;4.50;;
10461;SDS011;5278;42.656;23.374;2023-12-04T09:22:26;7.23;;;4.57;;
10461;SDS011;5278;42.656;23.374;2023-12-04T09:24:53;6.90;;;5.13;;
10461;SDS011;5278;42.656;23.374;2023-12-04T09:27:20;5.67;;;4.80;;
10461;SDS011;5278;42.656;23.374;2023-12-04T09:29:46;5.13;;;4.27;;
10461;SDS011;5278;42.656;23.374;2023-12-04T09:32:13;6.73;;;5.03;;
10461;SDS011;5278;42.656;23.374;2023-12-04T09:34:41;8.07;;;4.67;;
10461;SDS011;5278;42.656;23.374;2023-12-04T09:37:08;7.00;;;5.10;;
10461;SDS011;5278;42.656;23.374;2023-12-04T09:39:35;5.43;;;4.50;;
10461;SDS011;5278;42.656;23.374;2023-12-04T09:42:01;4.87;;;3.97;;
10461;SDS011;5278;42.656;23.374;2023-12-04T09:44:29;5.43;;;4.27;;
10461;SDS011;5278;42.656;23.374;2023-12-04T09:46:57;5.90;;;4.17;;
10461;SDS011;5278;42.656;23.374;2023-12-04T09:49:25;5.27;;;4.40;;
10461;SDS011;5278;42.656;23.374;2023-12-04T09:51:56;6.93;;;4.90;;
10461;SDS011;5278;42.656;23.374;2023-12-04T09:54:24;6.70;;;5.03;;
10461;SDS011;5278;42.656;23.374;2023-12-04T09:56:51;5.10;;;4.50;;
10461;SDS011;5278;42.656;23.374;2023-12-04T09:59:18;5.50;;;4.10;;
10461;SDS011;5278;42.656;23.374;2023-12-04T10:01:50;5.43;;;4.10;;
10461;SDS011;5278;42.656;23.374;2023-12-04T10:04:18;6.97;;;4.77;;
10461;SDS011;5278;42.656;23.374;2023-12-04T10:06:46;6.67;;;4.93;;
10461;SDS011;5278;42.656;23.374;2023-12-04T10:09:17;5.23;;;4.73;;
10461;SDS011;5278;42.656;23.374;2023-12-04T10:11:44;8.87;;;7.30;;
10461;SDS011;5278;42.656;23.374;2023-12-04T10:14:14;6.33;;;5.33;;
10461;SDS011;5278;42.656;23.374;2023-12-04T10:16:43;20.43;;;10.00;;
10461;SDS011;5278;42.656;23.374;2023-12-04T10:19:16;12.63;;;8.53;;
10461;SDS011;5278;42.656;23.374;2023-12-04T10:21:45;8.27;;;6.30;;
10461;SDS011;5278;42.656;23.374;2023-12-04T10:24:27;5.33;;;4.83;;
10461;SDS011;5278;42.656;23.374;2023-12-04T10:26:58;6.03;;;5.33;;
10461;SDS011;5278;42.656;23.374;2023-12-04T10:29:26;5.20;;;4.70;;
10461;SDS011;5278;42.656;23.374;2023-12-04T10:31:55;5.77;;;5.20;;
10461;SDS011;5278;42.656;23.374;2023-12-04T10:34:25;8.90;;;6.27;;
10461;SDS011;5278;42.656;23.374;2023-12-04T10:36:52;24.10;;;11.80;;
10461;SDS011;5278;42.656;23.374;2023-12-04T10:39:19;8.93;;;6.07;;
10461;SDS011;5278;42.656;23.374;2023-12-04T10:41:49;10.23;;;6.93;;
10461;SDS011;5278;42.656;23.374;2023-12-04T10:44:26;7.03;;;5.40;;
10461;SDS011;5278;42.656;23.374;2023-12-04T10:46:54;5.70;;;4.87;;
10461;SDS011;5278;42.656;23.374;2023-12-04T10:49:24;6.60;;;5.43;;
10461;SDS011;5278;42.656;23.374;2023-12-04T10:51:53;5.83;;;4.67;;
10461;SDS011;5278;42.656;23.374;2023-12-04T10:54:22;6.13;;;5.20;;
10461;SDS011;5278;42.656;23.374;2023-12-04T10:56:50;5.33;;;4.83;;
10461;SDS011;5278;42.656;23.374;2023-12-04T10:59:20;6.30;;;5.43;;
10461;SDS011;5278;42.656;23.374;2023-12-04T11:01:57;6.47;;;5.13;;
10461;SDS011;5278;42.656;23.374;2023-12-04T11:04:28;6.23;;;5.33;;
10461;SDS011;5278;42.656;23.374;2023-12-04T11:06:58;6.53;;;5.67;;
10461;SDS011;5278;42.656;23.374;2023-12-04T11:09:28;10.50;;;5.50;;
10461;SDS011;5278;42.656;23.374;2023-12-04T11:11:59;6.57;;;5.33;;
10461;SDS011;5278;42.656;23.374;2023-12-04T11:14:31;7.90;;;5.47;;
10461;SDS011;5278;42.656;23.374;2023-12-04T11:17:04;6.23;;;5.63;;
10461;SDS011;5278;42.656;23.374;2023-12-04T11:19:38;6.67;;;5.07;;
10461;SDS011;5278;42.656;23.374;2023-12-04T11:22:10;8.03;;;7.17;;
10461;SDS011;5278;42.656;23.374;2023-12-04T11:24:38;9.80;;;5.63;;
10461;SDS011;5278;42.656;23.374;2023-12-04T11:27:07;7.33;;;4.87;;
10461;SDS011;5278;42.656;23.374;2023-12-04T11:29:35;6.00;;;5.40;;
10461;SDS011;5278;42.656;23.374;2023-12-04T11:32:04;7.03;;;5.10;;
10461;SDS011;5278;42.656;23.374;2023-12-04T11:34:32;6.57;;;5.03;;
10461;SDS011;5278;42.656;23.374;2023-12-04T11:36:58;6.40;;;4.93;;
10461;SDS011;5278;42.656;23.374;2023-12-04T11:39:27;6.67;;;5.93;;
10461;SDS011;5278;42.656;23.374;2023-12-04T11:41:55;6.73;;;5.10;;
10461;SDS011;5278;42.656;23.374;2023-12-04T11:44:26;9.87;;;5.57;;
10461;SDS011;5278;42.656;23.374;2023-12-04T11:46:56;6.63;;;5.50;;
10461;SDS011;5278;42.656;23.374;2023-12-04T11:49:26;6.37;;;5.27;;
10461;SDS011;5278;42.656;23.374;2023-12-04T11:51:55;7.83;;;4.93;;
10461;SDS011;5278;42.656;23.374;2023-12-04T11:54:22;9.30;;;5.63;;
10461;SDS011;5278;42.656;23.374;2023-12-04T11:57:00;8.43;;;6.13;;
10461;SDS011;5278;42.656;23.374;2023-12-04T11:59:47;7.80;;;6.40;;
10461;SDS011;5278;42.656;23.374;2023-12-04T12:02:14;8.47;;;5.83;;
10461;SDS011;5278;42.656;23.374;2023-12-04T12:04:42;6.27;;;5.50;;
10461;SDS011;5278;42.656;23.374;2023-12-04T12:07:10;6.97;;;5.30;;
10461;SDS011;5278;42.656;23.374;2023-12-04T12:09:38;7.17;;;5.77;;
10461;SDS011;5278;42.656;23.374;2023-12-04T12:12:05;6.40;;;5.00;;
10461;SDS011;5278;42.656;23.374;2023-12-04T12:14:32;5.50;;;5.00;;
10461;SDS011;5278;42.656;23.374;2023-12-04T12:17:00;8.60;;;5.20;;
10461;SDS011;5278;42.656;23.374;2023-12-04T12:19:27;5.87;;;5.23;;
10461;SDS011;5278;42.656;23.374;2023-12-04T12:21:54;7.53;;;5.40;;
10461;SDS011;5278;42.656;23.374;2023-12-04T12:24:21;6.80;;;5.60;;
10461;SDS011;5278;42.656;23.374;2023-12-04T12:26:49;6.87;;;5.77;;
10461;SDS011;5278;42.656;23.374;2023-12-04T12:29:17;7.37;;;6.07;;
10461;SDS011;5278;42.656;23.374;2023-12-04T12:31:43;7.47;;;5.53;;
10461;SDS011;5278;42.656;23.374;2023-12-04T12:34:13;8.73;;;5.37;;
10461;SDS011;5278;42.656;23.374;2023-12-04T12:36:40;9.97;;;6.47;;
10461;SDS011;5278;42.656;23.374;2023-12-04T12:39:07;6.57;;;5.90;;
10461;SDS011;5278;42.656;23.374;2023-12-04T12:41:33;8.10;;;6.33;;
10461;SDS011;5278;42.656;23.374;2023-12-04T12:44:00;10.67;;;7.10;;
10461;SDS011;5278;42.656;23.374;2023-12-04T12:46:28;9.03;;;7.20;;
10461;SDS011;5278;42.656;23.374;2023-12-04T12:48:55;11.60;;;8.07;;
10461;SDS011;5278;42.656;23.374;2023-12-04T12:51:25;10.17;;;7.80;;
10461;SDS011;5278;42.656;23.374;2023-12-04T12:53:52;8.53;;;6.90;;
10461;SDS011;5278;42.656;23.374;2023-12-04T12:56:19;10.63;;;7.43;;
10461;SDS011;5278;42.656;23.374;2023-12-04T12:58:46;16.13;;;11.33;;
10461;SDS011;5278;42.656;23.374;2023-12-04T13:01:13;12.67;;;9.30;;
10461;SDS011;5278;42.656;23.374;2023-12-04T13:03:40;12.40;;;8.73;;
10461;SDS011;5278;42.656;23.374;2023-12-04T13:06:11;13.27;;;8.03;;
10461;SDS011;5278;42.656;23.374;2023-12-04T13:08:39;11.07;;;8.30;;
10461;SDS011;5278;42.656;23.374;2023-12-04T13:11:06;13.40;;;9.43;;
10461;SDS011;5278;42.656;23.374;2023-12-04T13:13:33;11.83;;;9.03;;
10461;SDS011;5278;42.656;23.374;2023-12-04T13:16:00;10.77;;;7.60;;
10461;SDS011;5278;42.656;23.374;2023-12-04T13:18:27;11.00;;;8.47;;
10461;SDS011;5278;42.656;23.374;2023-12-04T13:20:54;13.63;;;8.13;;
10461;SDS011;5278;42.656;23.374;2023-12-04T13:23:21;15.20;;;10.23;;
10461;SDS011;5278;42.656;23.374;2023-12-04T13:25:50;15.00;;;10.23;;
10461;SDS011;5278;42.656;23.374;2023-12-04T13:28:19;11.47;;;8.47;;
10461;SDS011;5278;42.656;23.374;2023-12-04T13:30:46;14.33;;;8.80;;
10461;SDS011;5278;42.656;23.374;2023-12-04T13:33:13;17.50;;;9.70;;
10461;SDS011;5278;42.656;23.374;2023-12-04T13:35:40;18.67;;;12.10;;
10461;SDS011;5278;42.656;23.374;2023-12-04T13:38:07;19.23;;;10.10;;
10461;SDS011;5278;42.656;23.374;2023-12-04T13:40:38;12.70;;;9.57;;
10461;SDS011;5278;42.656;23.374;2023-12-04T13:43:06;10.70;;;8.83;;
10461;SDS011;5278;42.656;23.374;2023-12-04T13:45:50;12.43;;;9.67;;
10461;SDS011;5278;42.656;23.374;2023-12-04T13:48:18;14.67;;;9.00;;
10461;SDS011;5278;42.656;23.374;2023-12-04T13:50:46;13.50;;;10.23;;
10461;SDS011;5278;42.656;23.374;2023-12-04T13:53:15;14.63;;;9.70;;
10461;SDS011;5278;42.656;23.374;2023-12-04T13:55:46;20.50;;;9.60;;
10461;SDS011;5278;42.656;23.374;2023-12-04T13:58:35;13.70;;;9.20;;
10461;SDS011;5278;42.656;23.374;2023-12-04T14:01:09;12.07;;;9.00;;
10461;SDS011;5278;42.656;23.374;2023-12-04T14:03:39;11.70;;;8.13;;
10461;SDS011;5278;42.656;23.374;2023-12-04T14:06:06;13.43;;;8.37;;
10461;SDS011;5278;42.656;23.374;2023-12-04T14:08:34;17.07;;;8.97;;
10461;SDS011;5278;42.656;23.374;2023-12-04T14:11:01;15.57;;;8.40;;
10461;SDS011;5278;42.656;23.374;2023-12-04T14:13:28;9.90;;;7.50;;
10461;SDS011;5278;42.656;23.374;2023-12-04T14:15:57;11.90;;;8.23;;
10461;SDS011;5278;42.656;23.374;2023-12-04T14:18:24;12.80;;;7.87;;
10461;SDS011;5278;42.656;23.374;2023-12-04T14:20:51;14.93;;;8.30;;
10461;SDS011;5278;42.656;23.374;2023-12-04T14:23:18;11.50;;;7.60;;
10461;SDS011;5278;42.656;23.374;2023-12-04T14:25:45;11.50;;;7.87;;
10461;SDS011;5278;42.656;23.374;2023-12-04T14:28:13;13.47;;;8.63;;
10461;SDS011;5278;42.656;23.374;2023-12-04T14:30:39;11.83;;;8.17;;
10461;SDS011;5278;42.656;23.374;2023-12-04T14:33:08;11.17;;;6.83;;
10461;SDS011;5278;42.656;23.374;2023-12-04T14:35:35;25.73;;;11.97;;
10461;SDS011;5278;42.656;23.374;2023-12-04T14:38:03;11.90;;;7.93;;
10461;SDS011;5278;42.656;23.374;2023-12-04T14:40:30;17.97;;;9.17;;
10461;SDS011;5278;42.656;23.374;2023-12-04T14:42:57;21.07;;;11.33;;
10461;SDS011;5278;42.656;23.374;2023-12-04T14:45:24;13.93;;;8.60;;
10461;SDS011;5278;42.656;23.374;2023-12-04T14:47:51;16.80;;;10.00;;